• Join FlightAware (Why Join?)
  • Login
  • US Flag 
01:56AM EDT


 

Airport Tracker/Info


-or-


 

Live Flight TrackerFlight Track Log ✈ SWA1834 ✈ 04-Jan-2014 ✈ KHOU - KBWI

Flight Track Log - Related Links

Times and Time Zones

All times are in EST time to prevent confusion due to time zone crossing. See the SWA1834 flight status page for this flight to view local times or setup timezone preferences in your user account.

Time Position Orientation Groundspeed Altitude Reporting Facility
EST Latitude Longitude Course Direction KTS MPH feet Rate Location/Type
06:50PM 29.6356 -95.2675 27° Northeast 151 174 1,000  Level Houston Center
06:51PM 29.6872 -95.2372 27° Northeast 272 313 4,400 2,700 Climbing Houston Center
06:52PM 29.7275 -95.2428 353° North 261 300 6,200 3,660 Climbing Houston Center
06:52PM 29.7667 -95.2539 346° North 274 315 8,500 3,540 Climbing Houston Center
06:53PM 29.8036 -95.2622 349° North 272 313 9,900 2,460 Climbing Houston Center
06:53PM 29.8417 -95.2714 348° North 311 358 10,800 2,400 Climbing Houston Center
06:54PM 29.8928 -95.2833 349° North 315 362 12,400 3,240 Climbing Houston Center
06:55PM 30.0111 -95.2536 12° North 373 429 16,500 3,240 Climbing Houston Center
06:56PM 30.1078 -95.1914 29° Northeast 391 450 19,200 2,700 Climbing Houston Center
06:57PM 30.2094 -95.1281 28° Northeast 409 471 22,100 1,800 Climbing Houston Center
06:58PM 30.3125 -95.0633 28° Northeast 417 480 23,000 840 Climbing Houston Center
06:59PM 30.4158 -94.9975 29° Northeast 422 486 23,900 1,500 Climbing Houston Center
07:00PM 30.5167 -94.9194 34° Northeast 428 493 26,200 2,160 Climbing Houston Center
07:01PM 30.6181 -94.8417 33° Northeast 434 499 28,400 2,340 Climbing Houston Center
07:02PM 30.7389 -94.7483 34° Northeast 436 502 31,100 1,440 Climbing Houston Center
07:03PM 30.8425 -94.6694 33° Northeast 440 506 31,400 780 Climbing Houston Center
07:04PM 30.9525 -94.5842 34° Northeast 465 535 32,800 1,560 Climbing Houston Center
07:05PM 31.0619 -94.4992 34° Northeast 478 550 34,700 1,860 Climbing Houston Center
07:06PM 31.1675 -94.4161 34° Northeast 467 537 36,700 1,080 Climbing Houston Center
07:07PM 31.2917 -94.3192 34° Northeast 453 521 37,000 120 Climbing Houston Center
07:08PM 31.3950 -94.2381 34° Northeast 450 518 37,000  Level Houston Center
07:09PM 31.5003 -94.1564 33° Northeast 454 522 37,000  Level Houston Center
07:10PM 31.6050 -94.0733 34° Northeast 455 524 37,000  Level Houston Center
07:11PM 31.7097 -93.9861 35° Northeast 459 528 37,000  Level Houston Center
07:12PM 31.7969 -93.8642 50° Northeast 487 560 37,000  Level Houston Center
07:13PM 31.8806 -93.7389 52° Northeast 487 560 37,000  Level Houston Center
07:14PM 31.9808 -93.5869 52° Northeast 488 562 37,000  Level Houston Center
07:15PM 32.0636 -93.4614 52° Northeast 486 559 37,000  Level Houston Center
07:16PM 32.1314 -93.3594 52° Northeast 487 560 37,000  Level Fort Worth Center
07:17PM 32.2047 -93.2467 52° Northeast 484 557 37,000  Level Fort Worth Center
07:18PM 32.2867 -93.1228 52° Northeast 481 554 37,000  Level Fort Worth Center
07:19PM 32.3769 -92.9819 53° Northeast 480 552 37,000  Level Fort Worth Center
07:20PM 32.4653 -92.8458 52° Northeast 485 558 37,000  Level Fort Worth Center
07:21PM 32.5461 -92.7189 53° Northeast 484 557 37,000  Level Fort Worth Center
07:22PM 32.6275 -92.5928 53° Northeast 483 556 37,000  Level Fort Worth Center
07:23PM 32.7089 -92.4656 53° Northeast 486 559 37,000  Level Fort Worth Center
07:24PM 32.7922 -92.3361 53° Northeast 493 567 37,000  Level Fort Worth Center
07:25PM 32.8739 -92.2072 53° Northeast 491 565 37,000  Level Fort Worth Center
07:27PM 32.9714 -92.0558 52° Northeast 483 556 37,000  Level Fort Worth Center
07:28PM 33.0519 -91.9278 53° Northeast 484 557 37,000  Level Fort Worth Center
07:29PM 33.1319 -91.7994 53° Northeast 485 558 37,000  Level Fort Worth Center
07:30PM 33.2122 -91.6717 53° Northeast 482 555 37,000  Level Fort Worth Center
07:31PM 33.2942 -91.5428 53° Northeast 487 560 37,000  Level Fort Worth Center
07:32PM 33.3869 -91.3856 55° Northeast 494 568 37,000  Level Fort Worth Center
07:33PM 33.4625 -91.2406 58° Northeast 500 575 37,000  Level Fort Worth Center
07:34PM 33.5378 -91.0997 57° Northeast 503 579 37,000  Level Fort Worth Center
07:35PM 33.6139 -90.9575 57° Northeast 507 583 37,000  Level Fort Worth Center
07:36PM 33.6767 -90.8333 59° Northeast 497 572 37,100 780 Climbing Fort Worth Center
07:37PM 33.7994 -90.6064 57° Northeast 495 570 39,000 720 Climbing Memphis Center
07:38PM 33.8667 -90.4814 57° Northeast 492 566 39,000  Level Memphis Center
07:39PM 33.9531 -90.3158 58° Northeast 495 570 39,000  Level Memphis Center
07:40PM 34.0272 -90.1756 57° Northeast 494 568 39,000  Level Memphis Center
07:41PM 34.1011 -90.0342 58° Northeast 494 568 39,000  Level Memphis Center
07:42PM 34.1742 -89.8922 58° Northeast 495 570 39,000  Level Memphis Center
07:43PM 34.2461 -89.7519 58° Northeast 492 566 39,000  Level Memphis Center
07:44PM 34.3183 -89.6106 58° Northeast 492 566 39,000  Level Memphis Center
07:45PM 34.3903 -89.4692 58° Northeast 493 567 39,000  Level Memphis Center
07:46PM 34.4625 -89.3275 58° Northeast 493 567 39,000  Level Memphis Center
07:47PM 34.5344 -89.1864 58° Northeast 492 566 39,000  Level Memphis Center
07:49PM 34.6183 -89.0203 58° Northeast 492 566 39,000  Level Memphis Center
07:50PM 34.6900 -88.8789 58° Northeast 491 565 39,000  Level Memphis Center
07:51PM 34.7747 -88.7519 51° Northeast 485 558 39,000  Level Memphis Center
07:52PM 34.8689 -88.6392 44° Northeast 478 550 39,000  Level Memphis Center
07:53PM 34.9656 -88.5242 44° Northeast 479 551 39,000  Level Memphis Center
07:54PM 35.0653 -88.4022 45° Northeast 476 548 39,000  Level Memphis Center
07:55PM 35.1356 -88.2572 59° Northeast 494 568 39,000  Level Memphis Center
07:56PM 35.1972 -88.1067 63° Northeast 495 570 39,000  Level Memphis Center
07:57PM 35.2589 -87.9547 64° Northeast 497 572 39,000  Level Memphis Center
07:58PM 35.3214 -87.8022 63° Northeast 499 574 39,000  Level Memphis Center
07:59PM 35.3839 -87.6511 63° Northeast 497 572 39,000  Level Memphis Center
08:00PM 35.4533 -87.4781 64° Northeast 498 573 39,000  Level Memphis Center
08:01PM 35.5158 -87.3242 63° Northeast 499 574 39,000  Level Memphis Center
08:02PM 35.5775 -87.1708 64° Northeast 499 574 39,000  Level Memphis Center
08:03PM 35.6383 -87.0172 64° Northeast 498 573 39,000  Level Memphis Center
08:04PM 35.6989 -86.8642 64° Northeast 497 572 39,000  Level Memphis Center
08:05PM 35.7581 -86.7108 65° Northeast 496 571 39,000  Level Memphis Center
08:06PM 35.8192 -86.5586 64° Northeast 494 568 39,000  Level Memphis Center
08:07PM 35.8783 -86.4061 64° Northeast 493 567 39,000  Level Memphis Center
08:08PM 35.9486 -86.2275 64° Northeast 494 568 39,000  Level Memphis Center
08:09PM 36.0069 -86.0744 65° Northeast 493 567 39,000  Level Memphis Center
08:10PM 36.0667 -85.9206 64° Northeast 493 567 39,000  Level Memphis Center
08:11PM 36.1253 -85.7675 65° Northeast 494 568 39,000  Level Memphis Center
08:12PM 36.1731 -85.6431 65° Northeast 494 568 39,000  Level Indianapolis Center
08:13PM 36.2319 -85.4894 65° Northeast 492 566 39,000  Level Indianapolis Center
08:14PM 36.2911 -85.3344 65° Northeast 493 567 39,000  Level Indianapolis Center
08:15PM 36.3508 -85.1781 65° Northeast 497 572 39,000  Level Indianapolis Center
08:16PM 36.4100 -85.0208 65° Northeast 498 573 39,000  Level Indianapolis Center
08:17PM 36.4678 -84.8608 66° East 503 579 39,000  Level Indianapolis Center
08:18PM 36.5264 -84.7036 65° Northeast 500 575 39,000  Level Indianapolis Center
08:19PM 36.5850 -84.5453 65° Northeast 501 577 39,000  Level Indianapolis Center
08:20PM 36.6489 -84.3711 65° Northeast 503 579 39,000  Level Indianapolis Center
08:21PM 36.7075 -84.2122 65° Northeast 504 580 39,000 -420 Level Indianapolis Center
08:22PM 36.7647 -84.0511 66° East 507 583 38,200 -840 Descending Indianapolis Center
08:23PM 36.8225 -83.8886 66° East 510 587 37,300 -600 Descending Indianapolis Center
08:24PM 36.8783 -83.7272 67° East 508 585 37,000 -180 Descending Indianapolis Center
08:25PM 36.9331 -83.5625 67° East 510 587 37,000  Level Indianapolis Center
08:26PM 36.9867 -83.3983 68° East 509 586 37,000  Level Indianapolis Center
08:27PM 37.0494 -83.2069 68° East 505 581 37,000  Level Indianapolis Center
08:28PM 37.1042 -83.0433 67° East 503 579 37,000  Level Indianapolis Center
08:29PM 37.1575 -82.8783 68° East 502 578 37,000  Level Indianapolis Center
08:30PM 37.2106 -82.7128 68° East 505 581 37,000  Level Indianapolis Center
08:31PM 37.2644 -82.5461 68° East 511 588 37,000  Level Indianapolis Center
08:32PM 37.3181 -82.3792 68° East 513 590 37,000  Level Indianapolis Center
08:33PM 37.3706 -82.2125 68° East 512 589 37,000  Level Indianapolis Center
08:34PM 37.4231 -82.0456 68° East 514 592 37,000  Level Indianapolis Center
08:35PM 37.4761 -81.8756 68° East 519 597 37,000  Level Indianapolis Center
08:36PM 37.5303 -81.7056 68° East 522 601 37,000  Level Indianapolis Center
08:37PM 37.5825 -81.5336 69° East 524 603 37,000  Level Indianapolis Center
08:38PM 37.6386 -81.3517 69° East 526 605 37,000  Level Indianapolis Center
08:39PM 37.6906 -81.1836 69° East 525 604 37,000  Level Indianapolis Center
08:40PM 37.7400 -81.0147 70° East 526 605 37,000  Level Indianapolis Center
08:41PM 37.8011 -80.8125 69° East 526 605 37,000  Level Indianapolis Center
08:42PM 37.8458 -80.6606 70° East 523 602 37,000  Level Indianapolis Center
08:44PM 37.9122 -80.4481 68° East 517 595 37,000  Level Washington Center
08:45PM 37.9650 -80.2778 68° East 517 595 37,000  Level Washington Center
08:46PM 38.0153 -80.1042 70° East 517 595 37,000  Level Washington Center
08:47PM 38.0656 -79.9306 70° East 522 601 37,000  Level Washington Center
08:48PM 38.1108 -79.7747 70° East 522 601 37,000  Level Washington Center
08:49PM 38.1625 -79.6033 69° East 522 601 37,000 -1,500 Level Washington Center
08:50PM 38.2100 -79.4261 71° East 522 601 34,000 -3,180 Descending Washington Center
08:51PM 38.2614 -79.2517 69° East 522 601 30,700 -3,000 Descending Washington Center
08:52PM 38.3125 -79.0769 70° East 517 595 28,100 -1,800 Descending Washington Center
08:53PM 38.3567 -78.9175 71° East 505 581 27,200 -600 Descending Washington Center
08:54PM 38.4008 -78.7444 72° East 483 556 27,000 -120 Descending Washington Center
08:55PM 38.4447 -78.5847 71° East 471 542 27,000  Level Washington Center
08:56PM 38.4881 -78.4244 71° East 471 542 27,000 -960 Level Washington Center
08:57PM 38.5314 -78.2669 71° East 476 548 25,100 -2,160 Descending Washington Center
08:58PM 38.5742 -78.1117 71° East 470 541 22,800 -2,340 Descending Washington Center
08:59PM 38.6128 -77.9644 71° East 451 519 20,500 -1,920 Descending Washington Center
09:00PM 38.6428 -77.8111 76° East 440 506 19,000 -780 Descending Washington Center
09:01PM 38.6539 -77.6600 85° East 429 494 19,000 -360 Level Washington Center
09:01PM 38.6667 -77.5667 80° East 429 494 18,500 -1,680 Descending Potomac TRACON
09:02PM 38.6667 -77.4167 90° East 416 479 16,400 -1,380 Descending Potomac TRACON
09:03PM 38.6833 -77.2667 82° East 405 466 15,800 -1,440 Descending Potomac TRACON
09:04PM 38.6833 -77.1167 90° East 394 453 13,400 -2,160 Descending Potomac TRACON
09:05PM 38.7000 -76.9833 81° East 385 443 11,500 -1,560 Descending Potomac TRACON
09:06PM 38.7000 -76.8500 90° East 363 418 10,500 -1,020 Descending Potomac TRACON
09:07PM 38.7167 -76.7500 78° East 316 364 9,500 -1,500 Descending Potomac TRACON
09:08PM 38.7500 -76.6500 67° East 308 354 7,600 -1,800 Descending Potomac TRACON
09:09PM 38.8000 -76.5500 57° Northeast 313 360 6,000 -1,620 Descending Potomac TRACON
09:10PM 38.8667 -76.5167 21° North 296 341 4,400 -1,020 Descending Potomac TRACON
09:11PM 38.9500 -76.5000 North 281 323 4,000 -360 Descending Potomac TRACON
09:12PM 39.0167 -76.4833 11° North 259 298 3,700 -540 Descending Potomac TRACON
09:13PM 39.0833 -76.4833 360° North 239 275 3,000 -600 Descending Potomac TRACON
09:14PM 39.1333 -76.4667 14° North 204 235 2,700 -540 Descending Potomac TRACON
09:15PM 39.1667 -76.5167 311° West 158 182 2,000 -600 Descending Potomac TRACON
09:16PM 39.1667 -76.5667 270° West 135 155 1,500 -600 Descending Potomac TRACON
09:17PM 39.1667 -76.6167 270° West 120 138 800 -720 Descending Potomac TRACON
09:19PM 39.1667 -76.6667 326° Northwest  Level FlightAware Approximate
09:26PM 39.1754 -76.6683 326° Northwest  Level Estimated
09:27PM 39.1754 -76.6683 326° Northwest  Level Estimated
09:28PM 39.1754 -76.6683 326° Northwest  Level Estimated
09:29PM 39.1754 -76.6683 326° Northwest  Level Estimated